aviador You're here:

YMML Decoded Metar

MELBOURNE in AUSTRALIA
Report Time2017-11-20 21:00:00
UTC Time2017-11-20 21:14:50
Flight Rules vfr VFR
Wind360° at 14 kt
W.Decomp.*RWY 34: 13.8 kt HW 2.2 kt RCW
RWY 27: 2.7 kt HW 13.7 kt RCW
Visibility9999 m
Phenomena:N/A
Clouds:N/A
Expected CloudBase > 4,800 ft AGL from Temp-Dew spread
CeilingNone
Temp22°C (ISA +8)
Dew Point10°C (47% RH)
AAT17.0°C
QNH1021 hPa
Density Alt1,283 ft
Elevation463 ft
Report Wrong Elevation
Raw Report
METAR YMML 202100Z 36014KT CAVOK 22/10 Q1021
NOSIG=

Extra information for YMML:More info

Metar Taf Metar & Taf Last 4 Metars F.Rules Stats Wind Profile Meteogram Temp Stats Airport Information Weather charts Add Link Nearby VenuesMetar ALERT Operation Metar Decoded Social comments